KPVG

Hampton Roads Executive Airport

Norfolk, Virginia, USA
METAR KPVG 161756Z AUTO 27006KT 10SM CLR 09/M01 A3013 RMK AO2 SLP205 6//// T00941006 10100 21061 58025 PNO $
Observed Flight Rules
Jan-16 @ 17:56 UTC (27 minutes ago) Visual Flight Rules
Wind Visibility Clouds
270° at 6 knots 10 miles
  • Clear skies
Temperatures Readings
Current 9°C / 48°F
Dewpoint -1°C / 30°F
Humidity 50%
Altimeter 30.13" Hg
Pressure 1020.5 hPa
Elevation 7
METAR KPVG 161756Z AUTO 27006KT 10SM CLR 09/M01 A3013 RMK AO2 SLP205 6//// T00941006 10100 21061 58025 PNO $
Observed Flight Rules
Jan-16 @ 17:56 UTC
(27 minutes ago)
VFR
Wind Visibility
270° at 6 knots 10 miles
Clouds
  • Clear skies
Temperature Dewpoint
9°C / 48°F -1°C / 30°F
Humidity Altimeter Pressure
50% 30.13" Hg 1020.5 hPa